createdAt,value
2018-05-29T00:05:25.789Z,6.69
2018-05-29T00:11:20.777Z,6.37
2018-05-29T00:17:15.755Z,6.83
2018-05-29T00:23:10.771Z,6.48
2018-05-29T00:29:05.769Z,7.45
2018-05-29T00:35:00.769Z,7.36
2018-05-29T00:40:55.770Z,6.83
2018-05-29T00:46:50.791Z,6.93
2018-05-29T00:52:45.784Z,6.07
2018-05-29T00:58:40.771Z,5.54
2018-05-29T01:04:35.786Z,5.54
2018-05-29T01:10:30.792Z,5.28
2018-05-29T01:16:25.850Z,5.91
2018-05-29T01:22:20.854Z,5.7
2018-05-29T01:28:15.838Z,5.9
2018-05-29T01:34:10.805Z,6.65
2018-05-29T01:40:05.834Z,6.55
2018-05-29T01:46:00.860Z,6.42
2018-05-29T01:51:55.804Z,5.94
2018-05-29T01:57:50.830Z,6.02
2018-05-29T02:03:45.953Z,7.23
2018-05-29T02:09:40.812Z,6.8
2018-05-29T02:15:35.854Z,6.45
2018-05-29T02:21:30.814Z,6.45
2018-05-29T02:27:25.833Z,6.1
2018-05-29T02:33:20.850Z,6.62
2018-05-29T02:39:15.833Z,6.92
2018-05-29T02:45:10.846Z,7.66
2018-05-29T02:51:05.837Z,6.36
2018-05-29T02:57:00.858Z,7.03
2018-05-29T03:02:55.927Z,7.35
2018-05-29T03:08:50.840Z,7.59
2018-05-29T03:14:46.015Z,9.47
2018-05-29T03:20:40.888Z,9.18
2018-05-29T03:26:35.929Z,9.18
2018-05-29T03:32:30.899Z,10.05
2018-05-29T03:38:25.908Z,9.31
2018-05-29T03:44:20.864Z,6.21
2018-05-29T03:50:15.887Z,6.21
2018-05-29T03:56:10.896Z,6.14
2018-05-29T04:02:05.873Z,8.06
2018-05-29T04:08:00.884Z,16.4
2018-05-29T04:13:55.928Z,16.84
2018-05-29T04:19:50.987Z,8.51
2018-05-29T04:25:45.943Z,6.75
2018-05-29T04:31:41.028Z,25.56
2018-05-29T04:37:35.907Z,12.22
2018-05-29T04:43:30.897Z,17.2
2018-05-29T04:49:25.939Z,16.27
2018-05-29T04:55:20.910Z,9.7
2018-05-29T05:01:16.090Z,7.99
2018-05-29T05:07:10.958Z,7.15
2018-05-29T05:13:06.242Z,8.57
2018-05-29T05:19:00.941Z,8.22
2018-05-29T05:24:55.908Z,8.21
2018-05-29T05:30:51.216Z,8.4
2018-05-29T05:36:46.367Z,8.05
2018-05-29T05:42:40.933Z,8
2018-05-29T05:48:36.132Z,8.67
2018-05-29T05:54:31.068Z,10.23
2018-05-29T06:00:25.948Z,10.85
2018-05-29T06:06:20.971Z,12.59
2018-05-29T06:12:15.971Z,10.56
2018-05-29T06:18:10.971Z,10.73
2018-05-29T06:24:05.980Z,13.29
2018-05-29T06:30:00.975Z,13.34
2018-05-29T06:35:55.957Z,9.47
2018-05-29T06:41:50.988Z,11.48
2018-05-29T06:47:45.969Z,10.9
2018-05-29T06:53:40.992Z,13.95
2018-05-29T06:59:35.981Z,16.33
2018-05-29T07:05:30.971Z,16.71
2018-05-29T07:11:26.043Z,17.12
2018-05-29T07:17:21.052Z,15.64
2018-05-29T07:23:16.011Z,7.57
2018-05-29T07:29:10.977Z,11.2
2018-05-29T07:35:05.999Z,11.69
2018-05-29T07:41:01.044Z,14.1
2018-05-29T07:46:55.996Z,13.74
2018-05-29T07:52:51.036Z,11.15
2018-05-29T07:58:46.088Z,10.63
2018-05-29T08:04:41.020Z,11.17
2018-05-29T08:10:36.111Z,8.01
2018-05-29T08:16:31.002Z,10.44
2018-05-29T08:22:26.037Z,7.02
2018-05-29T08:28:21.113Z,7.1
2018-05-29T08:34:16.064Z,8.93
2018-05-29T08:40:11.457Z,6.83
2018-05-29T08:46:06.106Z,5.98
2018-05-29T08:52:01.017Z,6.97
2018-05-29T08:57:56.073Z,6.96
2018-05-29T09:03:51.062Z,5.97
2018-05-29T09:09:46.098Z,6.69
2018-05-29T09:15:41.066Z,3.92
2018-05-29T09:21:36.061Z,5.07
2018-05-29T09:27:31.073Z,5.09
2018-05-29T09:33:26.050Z,4.86
2018-05-29T09:39:21.057Z,5.83
2018-05-29T09:45:16.090Z,5.03
2018-05-29T09:51:11.080Z,6
2018-05-29T09:57:06.060Z,5.01
2018-05-29T10:03:01.098Z,5.36
2018-05-29T10:08:56.129Z,4.98
2018-05-29T10:14:51.092Z,4.91
2018-05-29T10:20:46.097Z,4.37
2018-05-29T10:26:41.115Z,4.36
2018-05-29T10:32:36.101Z,4.78
2018-05-29T10:38:31.140Z,4.75
2018-05-29T10:44:26.194Z,4.41
2018-05-29T10:50:21.165Z,5
2018-05-29T10:56:16.131Z,5.12
2018-05-29T11:02:11.146Z,4.7
2018-05-29T11:08:06.157Z,4.49
2018-05-29T11:14:01.124Z,4.41
2018-05-29T11:19:56.134Z,4.66
2018-05-29T11:25:51.145Z,5.3
2018-05-29T11:31:46.161Z,6.09
2018-05-29T11:37:41.190Z,4.23
2018-05-29T11:43:36.256Z,4.31
2018-05-29T11:49:31.177Z,8.97
2018-05-29T11:55:26.200Z,4.69
2018-05-29T12:01:21.338Z,7.67
2018-05-29T12:07:16.156Z,5.41
2018-05-29T12:13:11.174Z,4.7
2018-05-29T12:19:06.157Z,4.98
2018-05-29T12:25:01.254Z,6.41
2018-05-29T12:30:56.145Z,5.19
2018-05-29T12:36:51.210Z,7.66
2018-05-29T12:42:46.212Z,5.36
2018-05-29T12:48:41.189Z,9.59
2018-05-29T12:54:36.199Z,7.34
2018-05-29T13:00:31.169Z,4.99
2018-05-29T13:06:26.201Z,4.38
2018-05-29T13:12:21.223Z,5.06
2018-05-29T13:18:16.199Z,6.85
2018-05-29T13:24:11.191Z,4.9
2018-05-29T13:30:06.232Z,4.49
2018-05-29T13:36:01.216Z,4.1
2018-05-29T13:41:56.215Z,4.64
2018-05-29T13:47:51.255Z,4.78
2018-05-29T13:53:46.231Z,5.86
2018-05-29T13:59:41.197Z,4.94
2018-05-29T14:05:36.226Z,7.32
2018-05-29T14:11:31.211Z,3.55
2018-05-29T14:17:26.203Z,5.67
2018-05-29T14:23:21.277Z,4.17
2018-05-29T14:29:16.226Z,4.31
2018-05-29T14:35:11.265Z,3.54
2018-05-29T14:41:06.260Z,3.3
2018-05-29T14:47:01.279Z,5.76
2018-05-29T14:52:56.224Z,4.55
2018-05-29T14:58:51.239Z,3.36
2018-05-29T15:04:46.303Z,2.79
2018-05-29T15:10:41.256Z,3.95
2018-05-29T15:16:36.275Z,7.03
2018-05-29T15:22:31.292Z,6.99
2018-05-29T15:28:26.281Z,5.42
2018-05-29T15:34:21.322Z,6.22
2018-05-29T15:40:16.292Z,6.41
2018-05-29T15:46:11.325Z,6.99
2018-05-29T15:52:06.313Z,5.13
2018-05-29T15:58:01.313Z,5.34
2018-05-29T16:03:56.283Z,4.29
2018-05-29T16:09:51.274Z,5.74
2018-05-29T16:15:46.278Z,5.09
2018-05-29T16:21:41.280Z,4.92
2018-05-29T16:27:36.300Z,3.26
2018-05-29T16:33:31.312Z,3.58
2018-05-29T16:39:26.314Z,3.73
2018-05-29T16:45:21.324Z,4.73
2018-05-29T16:51:16.309Z,4.22
2018-05-29T16:57:11.307Z,4.03
2018-05-29T17:03:06.325Z,5.36
2018-05-29T17:09:01.317Z,4.1
2018-05-29T17:14:56.354Z,3.7
2018-05-29T17:20:51.357Z,7.05
2018-05-29T17:26:46.395Z,6.22
2018-05-29T17:32:41.324Z,6.96
2018-05-29T17:38:36.371Z,5.61
2018-05-29T17:44:31.353Z,6.68
2018-05-29T17:50:26.323Z,6.63
2018-05-29T17:56:21.438Z,4.8
2018-05-29T18:02:16.355Z,5.94
2018-05-29T18:08:11.442Z,7.74
2018-05-29T18:14:06.405Z,10.4
2018-05-29T18:20:01.358Z,10.92
2018-05-29T18:25:56.396Z,8.85
2018-05-29T18:31:51.373Z,6.81
2018-05-29T18:37:46.375Z,4.65
2018-05-29T18:43:41.354Z,4.24
2018-05-29T18:49:36.444Z,4.52
2018-05-29T18:55:31.405Z,4.14
2018-05-29T19:01:26.407Z,4.14
2018-05-29T19:07:21.394Z,4.16
2018-05-29T19:13:16.396Z,4.11
2018-05-29T19:19:11.406Z,4.41
2018-05-29T19:25:06.393Z,4.69
2018-05-29T19:31:01.441Z,4.56
2018-05-29T19:36:56.425Z,4.45
2018-05-29T19:42:51.439Z,4.48
2018-05-29T19:48:46.424Z,5.69
2018-05-29T19:54:41.502Z,5.82
2018-05-29T20:00:36.443Z,6.1
2018-05-29T20:06:31.402Z,6.25
2018-05-29T20:12:26.445Z,6.1
2018-05-29T20:18:21.446Z,5.59
2018-05-29T20:24:16.474Z,6.35
2018-05-29T20:30:11.431Z,7.57
2018-05-29T20:36:06.477Z,7.2
2018-05-29T20:42:01.461Z,6
2018-05-29T20:47:56.472Z,4.95
2018-05-29T20:53:51.457Z,5.65
2018-05-29T20:59:46.487Z,4.57
2018-05-29T21:05:41.492Z,4.65
2018-05-29T21:11:36.494Z,5.06
2018-05-29T21:17:31.539Z,5.63
2018-05-29T21:23:26.514Z,4.87
2018-05-29T21:29:21.468Z,5.09
2018-05-29T21:35:16.475Z,6.07
2018-05-29T21:41:11.516Z,5.67
2018-05-29T21:47:06.494Z,4.3
2018-05-29T21:53:01.515Z,4.13
2018-05-29T21:58:56.478Z,4.69
2018-05-29T22:04:51.473Z,4.81
2018-05-29T22:10:46.589Z,5.56
2018-05-29T22:16:41.516Z,5.43
2018-05-29T22:22:36.551Z,5.81
2018-05-29T22:28:31.517Z,5.54
2018-05-29T22:34:26.550Z,5.58
2018-05-29T22:40:21.570Z,5.07
2018-05-29T22:46:16.518Z,5.44
2018-05-29T22:52:11.556Z,5.63
2018-05-29T22:58:06.508Z,5.18
2018-05-29T23:04:01.563Z,4.93
2018-05-29T23:09:56.542Z,5.62
2018-05-29T23:15:51.541Z,5.41
2018-05-29T23:21:46.557Z,5.76
2018-05-29T23:27:41.517Z,6.1
2018-05-29T23:33:36.546Z,6.42
2018-05-29T23:39:31.545Z,6.36
2018-05-29T23:45:26.613Z,7.08
2018-05-29T23:51:21.587Z,5.72
2018-05-29T23:57:16.585Z,5.6
